sensor_id;sensor_type;location;lat;lon;timestamp;pressure;altitude;pressure_sealevel;temperature;humidity
76260;BME280;65076;52.362;6.588;2023-06-10T00:00:54;101543.28;;;21.95;41.03
76260;BME280;65076;52.362;6.588;2023-06-10T00:03:23;101544.66;;;21.78;41.24
76260;BME280;65076;52.362;6.588;2023-06-10T00:05:52;101550.31;;;21.77;41.29
76260;BME280;65076;52.362;6.588;2023-06-10T00:08:22;101549.84;;;21.72;41.64
76260;BME280;65076;52.362;6.588;2023-06-10T00:10:50;101545.94;;;21.74;41.89
76260;BME280;65076;52.362;6.588;2023-06-10T00:13:19;101549.06;;;21.70;42.04
76260;BME280;65076;52.362;6.588;2023-06-10T00:15:47;101546.81;;;21.75;42.11
76260;BME280;65076;52.362;6.588;2023-06-10T00:18:15;101554.06;;;21.87;42.15
76260;BME280;65076;52.362;6.588;2023-06-10T00:20:44;101548.66;;;21.85;42.37
76260;BME280;65076;52.362;6.588;2023-06-10T00:23:12;101547.31;;;21.80;42.62
76260;BME280;65076;52.362;6.588;2023-06-10T00:25:41;101547.78;;;21.85;42.24
76260;BME280;65076;52.362;6.588;2023-06-10T00:28:09;101547.03;;;21.94;42.26
76260;BME280;65076;52.362;6.588;2023-06-10T00:30:37;101550.09;;;21.58;42.97
76260;BME280;65076;52.362;6.588;2023-06-10T00:33:05;101556.25;;;21.61;43.17
76260;BME280;65076;52.362;6.588;2023-06-10T00:35:33;101555.34;;;21.61;43.65
76260;BME280;65076;52.362;6.588;2023-06-10T00:38:01;101549.19;;;21.79;42.95
76260;BME280;65076;52.362;6.588;2023-06-10T00:40:29;101548.88;;;21.50;43.42
76260;BME280;65076;52.362;6.588;2023-06-10T00:42:58;101555.47;;;21.59;43.39
76260;BME280;65076;52.362;6.588;2023-06-10T00:45:26;101554.09;;;21.53;43.76
76260;BME280;65076;52.362;6.588;2023-06-10T00:47:55;101551.97;;;21.46;44.15
76260;BME280;65076;52.362;6.588;2023-06-10T00:50:24;101560.50;;;21.32;44.46
76260;BME280;65076;52.362;6.588;2023-06-10T00:52:53;101562.50;;;21.41;44.05
76260;BME280;65076;52.362;6.588;2023-06-10T00:55:22;101568.16;;;21.28;44.36
76260;BME280;65076;52.362;6.588;2023-06-10T00:57:51;101561.84;;;21.04;45.00
76260;BME280;65076;52.362;6.588;2023-06-10T01:00:21;101557.06;;;21.06;45.22
76260;BME280;65076;52.362;6.588;2023-06-10T01:02:49;101561.31;;;20.88;45.64
76260;BME280;65076;52.362;6.588;2023-06-10T01:05:19;101556.34;;;20.93;45.97
76260;BME280;65076;52.362;6.588;2023-06-10T01:07:51;101560.44;;;20.87;46.15
76260;BME280;65076;52.362;6.588;2023-06-10T01:10:33;101555.16;;;20.84;46.25
76260;BME280;65076;52.362;6.588;2023-06-10T01:13:06;101560.81;;;20.83;46.46
76260;BME280;65076;52.362;6.588;2023-06-10T01:15:39;101558.00;;;20.60;46.78
76260;BME280;65076;52.362;6.588;2023-06-10T01:18:09;101562.47;;;20.50;46.94
76260;BME280;65076;52.362;6.588;2023-06-10T01:20:43;101566.69;;;20.89;46.51
76260;BME280;65076;52.362;6.588;2023-06-10T01:23:15;101559.28;;;20.79;46.76
76260;BME280;65076;52.362;6.588;2023-06-10T01:25:46;101565.28;;;20.84;46.96
76260;BME280;65076;52.362;6.588;2023-06-10T01:28:26;101561.00;;;20.68;47.40
76260;BME280;65076;52.362;6.588;2023-06-10T01:31:06;101566.78;;;20.65;47.59
76260;BME280;65076;52.362;6.588;2023-06-10T01:33:43;101567.09;;;20.50;47.82
76260;BME280;65076;52.362;6.588;2023-06-10T01:36:16;101566.69;;;20.43;48.60
76260;BME280;65076;52.362;6.588;2023-06-10T01:38:49;101567.50;;;20.56;48.20
76260;BME280;65076;52.362;6.588;2023-06-10T01:41:18;101563.22;;;20.52;48.48
76260;BME280;65076;52.362;6.588;2023-06-10T01:43:48;101565.97;;;20.52;48.09
76260;BME280;65076;52.362;6.588;2023-06-10T01:46:17;101571.88;;;20.11;49.55
76260;BME280;65076;52.362;6.588;2023-06-10T01:48:48;101575.75;;;20.33;49.13
76260;BME280;65076;52.362;6.588;2023-06-10T01:51:16;101566.94;;;20.40;48.96
76260;BME280;65076;52.362;6.588;2023-06-10T01:53:45;101570.44;;;20.42;49.04
76260;BME280;65076;52.362;6.588;2023-06-10T01:56:14;101573.13;;;20.31;49.80
76260;BME280;65076;52.362;6.588;2023-06-10T01:58:45;101576.06;;;20.41;49.30
76260;BME280;65076;52.362;6.588;2023-06-10T02:01:13;101582.16;;;20.20;50.25
76260;BME280;65076;52.362;6.588;2023-06-10T02:03:42;101577.19;;;20.25;50.03
76260;BME280;65076;52.362;6.588;2023-06-10T02:06:10;101579.41;;;20.20;50.32
76260;BME280;65076;52.362;6.588;2023-06-10T02:08:38;101583.28;;;19.94;50.93
76260;BME280;65076;52.362;6.588;2023-06-10T02:11:06;101575.75;;;20.09;50.88
76260;BME280;65076;52.362;6.588;2023-06-10T02:13:35;101576.25;;;19.90;51.45
76260;BME280;65076;52.362;6.588;2023-06-10T02:16:05;101578.50;;;20.09;51.60
76260;BME280;65076;52.362;6.588;2023-06-10T02:18:33;101585.50;;;19.89;52.13
76260;BME280;65076;52.362;6.588;2023-06-10T02:21:01;101575.28;;;19.91;52.05
76260;BME280;65076;52.362;6.588;2023-06-10T02:23:29;101590.84;;;20.03;51.88
76260;BME280;65076;52.362;6.588;2023-06-10T02:25:59;101579.88;;;19.91;52.18
76260;BME280;65076;52.362;6.588;2023-06-10T02:28:27;101582.19;;;19.97;51.95
76260;BME280;65076;52.362;6.588;2023-06-10T02:30:56;101577.31;;;19.76;52.69
76260;BME280;65076;52.362;6.588;2023-06-10T02:33:26;101584.41;;;19.55;53.08
76260;BME280;65076;52.362;6.588;2023-06-10T02:35:54;101584.13;;;19.83;52.83
76260;BME280;65076;52.362;6.588;2023-06-10T02:38:23;101586.63;;;19.74;53.22
76260;BME280;65076;52.362;6.588;2023-06-10T02:40:51;101588.28;;;19.76;53.28
76260;BME280;65076;52.362;6.588;2023-06-10T02:43:19;101591.75;;;19.67;53.47
76260;BME280;65076;52.362;6.588;2023-06-10T02:45:46;101585.19;;;19.57;53.75
76260;BME280;65076;52.362;6.588;2023-06-10T02:48:16;101597.88;;;19.71;53.78
76260;BME280;65076;52.362;6.588;2023-06-10T02:50:44;101597.59;;;19.50;54.21
76260;BME280;65076;52.362;6.588;2023-06-10T02:53:12;101586.59;;;19.50;53.81
76260;BME280;65076;52.362;6.588;2023-06-10T02:55:40;101593.28;;;19.59;53.74
76260;BME280;65076;52.362;6.588;2023-06-10T02:58:11;101593.97;;;19.50;54.10
76260;BME280;65076;52.362;6.588;2023-06-10T03:00:39;101597.34;;;19.40;54.60
76260;BME280;65076;52.362;6.588;2023-06-10T03:03:07;101594.59;;;19.40;54.54
76260;BME280;65076;52.362;6.588;2023-06-10T03:05:40;101593.94;;;19.37;54.62
76260;BME280;65076;52.362;6.588;2023-06-10T03:08:08;101594.28;;;19.32;54.95
76260;BME280;65076;52.362;6.588;2023-06-10T03:10:36;101602.41;;;19.34;55.09
76260;BME280;65076;52.362;6.588;2023-06-10T03:13:04;101603.06;;;19.12;55.63
76260;BME280;65076;52.362;6.588;2023-06-10T03:15:32;101603.97;;;19.25;55.49
76260;BME280;65076;52.362;6.588;2023-06-10T03:18:00;101605.28;;;19.07;55.85
76260;BME280;65076;52.362;6.588;2023-06-10T03:20:29;101604.72;;;19.15;55.63
76260;BME280;65076;52.362;6.588;2023-06-10T03:22:58;101600.22;;;19.01;56.21
76260;BME280;65076;52.362;6.588;2023-06-10T03:25:26;101606.06;;;19.09;56.12
76260;BME280;65076;52.362;6.588;2023-06-10T03:27:55;101604.59;;;19.16;55.71
76260;BME280;65076;52.362;6.588;2023-06-10T03:30:23;101607.56;;;19.13;55.97
76260;BME280;65076;52.362;6.588;2023-06-10T03:32:51;101605.81;;;19.12;55.59
76260;BME280;65076;52.362;6.588;2023-06-10T03:35:19;101608.91;;;19.08;55.86
76260;BME280;65076;52.362;6.588;2023-06-10T03:37:47;101611.19;;;18.88;56.63
76260;BME280;65076;52.362;6.588;2023-06-10T03:40:17;101599.88;;;19.05;56.13
76260;BME280;65076;52.362;6.588;2023-06-10T03:42:44;101607.91;;;19.09;56.01
76260;BME280;65076;52.362;6.588;2023-06-10T03:45:12;101614.63;;;19.04;56.15
76260;BME280;65076;52.362;6.588;2023-06-10T03:47:40;101617.03;;;19.09;56.23
76260;BME280;65076;52.362;6.588;2023-06-10T03:50:10;101619.75;;;18.96;56.46
76260;BME280;65076;52.362;6.588;2023-06-10T03:52:38;101622.16;;;18.88;56.71
76260;BME280;65076;52.362;6.588;2023-06-10T03:55:07;101627.44;;;18.79;56.79
76260;BME280;65076;52.362;6.588;2023-06-10T03:57:41;101624.34;;;18.83;56.81
76260;BME280;65076;52.362;6.588;2023-06-10T04:00:10;101619.84;;;18.95;56.36
76260;BME280;65076;52.362;6.588;2023-06-10T04:02:38;101621.28;;;19.00;56.20
76260;BME280;65076;52.362;6.588;2023-06-10T04:05:12;101614.16;;;19.11;56.02
76260;BME280;65076;52.362;6.588;2023-06-10T04:07:42;101618.63;;;18.86;56.55
76260;BME280;65076;52.362;6.588;2023-06-10T04:10:11;101620.09;;;19.04;56.42
76260;BME280;65076;52.362;6.588;2023-06-10T04:12:41;101617.97;;;18.95;56.10
76260;BME280;65076;52.362;6.588;2023-06-10T04:15:09;101624.13;;;19.12;56.18
76260;BME280;65076;52.362;6.588;2023-06-10T04:17:38;101624.78;;;18.90;57.06
76260;BME280;65076;52.362;6.588;2023-06-10T04:20:07;101624.81;;;19.02;56.61
76260;BME280;65076;52.362;6.588;2023-06-10T04:22:36;101625.47;;;18.93;56.88
76260;BME280;65076;52.362;6.588;2023-06-10T04:25:05;101626.69;;;19.15;56.16
76260;BME280;65076;52.362;6.588;2023-06-10T04:27:34;101625.47;;;19.19;56.18
76260;BME280;65076;52.362;6.588;2023-06-10T04:30:06;101636.22;;;19.34;55.59
76260;BME280;65076;52.362;6.588;2023-06-10T04:32:34;101634.47;;;19.59;54.64
76260;BME280;65076;52.362;6.588;2023-06-10T04:35:05;101632.50;;;20.34;52.25
76260;BME280;65076;52.362;6.588;2023-06-10T04:37:34;101635.66;;;20.40;51.90
76260;BME280;65076;52.362;6.588;2023-06-10T04:40:02;101635.69;;;20.27;52.27
76260;BME280;65076;52.362;6.588;2023-06-10T04:42:33;101637.41;;;20.65;51.18
76260;BME280;65076;52.362;6.588;2023-06-10T04:45:01;101630.31;;;20.85;51.09
76260;BME280;65076;52.362;6.588;2023-06-10T04:47:31;101631.31;;;20.84;50.52
76260;BME280;65076;52.362;6.588;2023-06-10T04:50:00;101635.38;;;21.02;50.52
76260;BME280;65076;52.362;6.588;2023-06-10T04:52:31;101638.88;;;20.93;50.48
76260;BME280;65076;52.362;6.588;2023-06-10T04:55:00;101633.44;;;21.15;49.86
76260;BME280;65076;52.362;6.588;2023-06-10T04:57:29;101631.47;;;21.28;49.60
76260;BME280;65076;52.362;6.588;2023-06-10T04:59:57;101638.34;;;21.67;48.49
76260;BME280;65076;52.362;6.588;2023-06-10T05:02:25;101634.72;;;21.44;48.75
76260;BME280;65076;52.362;6.588;2023-06-10T05:04:54;101637.72;;;21.41;49.23
76260;BME280;65076;52.362;6.588;2023-06-10T05:07:24;101637.56;;;22.21;47.07
76260;BME280;65076;52.362;6.588;2023-06-10T05:09:53;101641.25;;;21.43;47.76
76260;BME280;65076;52.362;6.588;2023-06-10T05:12:21;101641.78;;;21.02;49.61
76260;BME280;65076;52.362;6.588;2023-06-10T05:14:49;101639.59;;;21.63;48.36
76260;BME280;65076;52.362;6.588;2023-06-10T05:17:18;101631.22;;;21.76;48.00
76260;BME280;65076;52.362;6.588;2023-06-10T05:19:46;101634.97;;;21.64;48.42
76260;BME280;65076;52.362;6.588;2023-06-10T05:22:16;101634.66;;;22.33;47.30
76260;BME280;65076;52.362;6.588;2023-06-10T05:24:45;101636.44;;;22.23;46.05
76260;BME280;65076;52.362;6.588;2023-06-10T05:27:13;101635.59;;;22.12;46.72
76260;BME280;65076;52.362;6.588;2023-06-10T05:29:40;101636.09;;;22.49;46.15
76260;BME280;65076;52.362;6.588;2023-06-10T05:32:09;101637.47;;;22.86;45.40
76260;BME280;65076;52.362;6.588;2023-06-10T05:34:37;101638.06;;;22.15;46.42
76260;BME280;65076;52.362;6.588;2023-06-10T05:37:05;101632.47;;;22.80;44.83
76260;BME280;65076;52.362;6.588;2023-06-10T05:39:35;101635.72;;;23.06;45.02
76260;BME280;65076;52.362;6.588;2023-06-10T05:42:05;101650.53;;;23.46;43.23
76260;BME280;65076;52.362;6.588;2023-06-10T05:44:34;101642.22;;;22.84;44.46
76260;BME280;65076;52.362;6.588;2023-06-10T05:47:04;101644.16;;;23.35;43.84
76260;BME280;65076;52.362;6.588;2023-06-10T05:49:32;101644.88;;;23.88;42.74
76260;BME280;65076;52.362;6.588;2023-06-10T05:52:00;101643.88;;;23.07;43.62
76260;BME280;65076;52.362;6.588;2023-06-10T05:54:29;101640.97;;;23.90;41.88
76260;BME280;65076;52.362;6.588;2023-06-10T05:56:58;101639.06;;;23.81;42.06
76260;BME280;65076;52.362;6.588;2023-06-10T05:59:26;101652.56;;;23.23;43.73
76260;BME280;65076;52.362;6.588;2023-06-10T06:01:55;101646.00;;;24.16;41.86
76260;BME280;65076;52.362;6.588;2023-06-10T06:04:23;101639.97;;;24.51;41.38
76260;BME280;65076;52.362;6.588;2023-06-10T06:06:51;101638.63;;;24.26;41.50
76260;BME280;65076;52.362;6.588;2023-06-10T06:09:19;101638.81;;;24.53;40.36
76260;BME280;65076;52.362;6.588;2023-06-10T06:11:47;101637.78;;;24.83;40.66
76260;BME280;65076;52.362;6.588;2023-06-10T06:14:19;101638.91;;;25.38;39.32
76260;BME280;65076;52.362;6.588;2023-06-10T06:16:46;101647.66;;;25.43;38.47
76260;BME280;65076;52.362;6.588;2023-06-10T06:19:14;101641.59;;;24.92;39.46
76260;BME280;65076;52.362;6.588;2023-06-10T06:21:43;101652.97;;;25.54;39.72
76260;BME280;65076;52.362;6.588;2023-06-10T06:24:10;101646.06;;;25.31;39.86
76260;BME280;65076;52.362;6.588;2023-06-10T06:26:58;101635.53;;;25.35;39.02
76260;BME280;65076;52.362;6.588;2023-06-10T06:29:27;101648.06;;;25.48;38.70
76260;BME280;65076;52.362;6.588;2023-06-10T06:31:57;101638.44;;;25.89;38.06
76260;BME280;65076;52.362;6.588;2023-06-10T06:34:25;101643.63;;;24.99;38.71
76260;BME280;65076;52.362;6.588;2023-06-10T06:36:54;101640.53;;;25.78;37.57
76260;BME280;65076;52.362;6.588;2023-06-10T06:39:22;101652.88;;;26.20;36.62
76260;BME280;65076;52.362;6.588;2023-06-10T06:41:52;101651.53;;;25.97;37.23
76260;BME280;65076;52.362;6.588;2023-06-10T06:44:21;101643.72;;;26.10;36.83
76260;BME280;65076;52.362;6.588;2023-06-10T06:46:50;101643.72;;;26.10;37.50
76260;BME280;65076;52.362;6.588;2023-06-10T06:49:18;101645.16;;;26.41;36.76
76260;BME280;65076;52.362;6.588;2023-06-10T06:51:48;101637.47;;;26.35;36.32
76260;BME280;65076;52.362;6.588;2023-06-10T06:54:16;101645.38;;;26.30;36.15
76260;BME280;65076;52.362;6.588;2023-06-10T06:56:47;101636.34;;;26.28;36.66
76260;BME280;65076;52.362;6.588;2023-06-10T06:59:15;101638.72;;;25.86;37.07
76260;BME280;65076;52.362;6.588;2023-06-10T07:01:46;101641.94;;;26.64;34.78
76260;BME280;65076;52.362;6.588;2023-06-10T07:04:15;101639.19;;;27.25;34.46
76260;BME280;65076;52.362;6.588;2023-06-10T07:06:46;101649.34;;;27.60;33.99
76260;BME280;65076;52.362;6.588;2023-06-10T07:09:14;101637.72;;;27.38;34.26
76260;BME280;65076;52.362;6.588;2023-06-10T07:11:42;101647.38;;;27.78;33.27
76260;BME280;65076;52.362;6.588;2023-06-10T07:14:10;101649.44;;;28.10;33.43
76260;BME280;65076;52.362;6.588;2023-06-10T07:16:38;101646.03;;;27.90;33.40
76260;BME280;65076;52.362;6.588;2023-06-10T07:19:06;101648.53;;;27.67;33.74
76260;BME280;65076;52.362;6.588;2023-06-10T07:21:35;101642.34;;;29.06;31.61
76260;BME280;65076;52.362;6.588;2023-06-10T07:24:04;101645.34;;;27.88;33.40
76260;BME280;65076;52.362;6.588;2023-06-10T07:26:33;101647.00;;;27.73;34.21
76260;BME280;65076;52.362;6.588;2023-06-10T07:29:01;101653.56;;;27.20;33.77
76260;BME280;65076;52.362;6.588;2023-06-10T07:31:29;101658.78;;;27.67;33.52
76260;BME280;65076;52.362;6.588;2023-06-10T07:33:57;101663.56;;;28.16;32.47
76260;BME280;65076;52.362;6.588;2023-06-10T07:36:25;101661.75;;;28.07;32.69
76260;BME280;65076;52.362;6.588;2023-06-10T07:38:56;101660.81;;;27.91;32.76
76260;BME280;65076;52.362;6.588;2023-06-10T07:41:24;101657.19;;;28.32;32.39
76260;BME280;65076;52.362;6.588;2023-06-10T07:43:57;101661.72;;;28.33;32.94
76260;BME280;65076;52.362;6.588;2023-06-10T07:46:25;101661.13;;;28.72;32.36
76260;BME280;65076;52.362;6.588;2023-06-10T07:48:55;101670.56;;;28.29;32.55
76260;BME280;65076;52.362;6.588;2023-06-10T07:51:24;101657.00;;;28.92;31.91
76260;BME280;65076;52.362;6.588;2023-06-10T07:53:56;101665.34;;;27.92;33.08
76260;BME280;65076;52.362;6.588;2023-06-10T07:56:24;101664.34;;;28.43;33.10
76260;BME280;65076;52.362;6.588;2023-06-10T07:58:54;101665.38;;;28.26;32.65
76260;BME280;65076;52.362;6.588;2023-06-10T08:01:23;101665.50;;;28.74;31.17
76260;BME280;65076;52.362;6.588;2023-06-10T08:03:51;101659.44;;;29.03;31.58
76260;BME280;65076;52.362;6.588;2023-06-10T08:06:19;101660.63;;;29.17;31.14
76260;BME280;65076;52.362;6.588;2023-06-10T08:08:47;101657.44;;;29.93;30.65
76260;BME280;65076;52.362;6.588;2023-06-10T08:11:17;101664.88;;;30.08;30.35
76260;BME280;65076;52.362;6.588;2023-06-10T08:13:45;101667.34;;;30.34;29.36
76260;BME280;65076;52.362;6.588;2023-06-10T08:16:13;101671.97;;;28.83;31.24
76260;BME280;65076;52.362;6.588;2023-06-10T08:18:41;101666.22;;;29.57;30.47
76260;BME280;65076;52.362;6.588;2023-06-10T08:21:09;101648.69;;;29.79;29.43
76260;BME280;65076;52.362;6.588;2023-06-10T08:23:37;101664.81;;;29.61;28.50
76260;BME280;65076;52.362;6.588;2023-06-10T08:26:14;101660.28;;;30.54;27.94
76260;BME280;65076;52.362;6.588;2023-06-10T08:28:43;101657.22;;;29.86;30.49
76260;BME280;65076;52.362;6.588;2023-06-10T08:31:15;101667.69;;;29.84;29.80
76260;BME280;65076;52.362;6.588;2023-06-10T08:33:43;101665.44;;;29.96;29.93
76260;BME280;65076;52.362;6.588;2023-06-10T08:36:29;101672.63;;;30.29;28.80
76260;BME280;65076;52.362;6.588;2023-06-10T08:38:57;101656.13;;;30.50;29.07
76260;BME280;65076;52.362;6.588;2023-06-10T08:41:28;101649.59;;;31.26;27.43
76260;BME280;65076;52.362;6.588;2023-06-10T08:44:04;101652.94;;;30.22;28.83
76260;BME280;65076;52.362;6.588;2023-06-10T08:46:37;101652.09;;;31.21;28.03
76260;BME280;65076;52.362;6.588;2023-06-10T08:49:10;101658.25;;;30.71;27.14
76260;BME280;65076;52.362;6.588;2023-06-10T08:51:45;101648.78;;;30.41;28.94
76260;BME280;65076;52.362;6.588;2023-06-10T08:54:20;101650.41;;;31.35;27.91
76260;BME280;65076;52.362;6.588;2023-06-10T08:56:54;101649.19;;;31.14;28.14
76260;BME280;65076;52.362;6.588;2023-06-10T08:59:26;101650.31;;;31.66;27.43
76260;BME280;65076;52.362;6.588;2023-06-10T09:01:55;101655.03;;;31.05;28.13
76260;BME280;65076;52.362;6.588;2023-06-10T09:04:24;101656.28;;;31.92;26.37
76260;BME280;65076;52.362;6.588;2023-06-10T09:06:52;101654.59;;;31.16;28.04
76260;BME280;65076;52.362;6.588;2023-06-10T09:09:23;101651.25;;;31.73;25.93
76260;BME280;65076;52.362;6.588;2023-06-10T09:11:51;101653.38;;;32.00;26.23
76260;BME280;65076;52.362;6.588;2023-06-10T09:14:19;101656.03;;;31.49;25.90
76260;BME280;65076;52.362;6.588;2023-06-10T09:16:48;101638.25;;;31.42;26.84
76260;BME280;65076;52.362;6.588;2023-06-10T09:19:16;101648.38;;;30.60;28.06
76260;BME280;65076;52.362;6.588;2023-06-10T09:21:44;101653.66;;;32.05;25.97
76260;BME280;65076;52.362;6.588;2023-06-10T09:24:13;101648.56;;;32.23;25.86
76260;BME280;65076;52.362;6.588;2023-06-10T09:26:42;101637.34;;;31.65;27.56
76260;BME280;65076;52.362;6.588;2023-06-10T09:29:12;101644.28;;;31.98;26.04
76260;BME280;65076;52.362;6.588;2023-06-10T09:31:40;101642.41;;;32.13;25.99
76260;BME280;65076;52.362;6.588;2023-06-10T09:34:11;101650.97;;;31.30;25.83
76260;BME280;65076;52.362;6.588;2023-06-10T09:36:39;101638.50;;;31.55;25.81
76260;BME280;65076;52.362;6.588;2023-06-10T09:39:14;101639.25;;;32.37;24.82
76260;BME280;65076;52.362;6.588;2023-06-10T09:41:45;101640.81;;;32.25;25.28
76260;BME280;65076;52.362;6.588;2023-06-10T09:44:14;101647.25;;;32.41;24.75
76260;BME280;65076;52.362;6.588;2023-06-10T09:46:45;101644.44;;;32.41;23.97
76260;BME280;65076;52.362;6.588;2023-06-10T09:49:15;101633.88;;;32.07;24.85
76260;BME280;65076;52.362;6.588;2023-06-10T09:51:50;101628.31;;;33.00;23.29
76260;BME280;65076;52.362;6.588;2023-06-10T09:54:20;101632.91;;;32.14;25.33
76260;BME280;65076;52.362;6.588;2023-06-10T09:56:49;101638.22;;;33.45;23.12
76260;BME280;65076;52.362;6.588;2023-06-10T09:59:28;101633.47;;;32.75;23.66
76260;BME280;65076;52.362;6.588;2023-06-10T10:01:58;101633.38;;;32.68;23.56
76260;BME280;65076;52.362;6.588;2023-06-10T10:04:28;101631.66;;;32.89;23.68
76260;BME280;65076;52.362;6.588;2023-06-10T10:06:56;101627.25;;;32.79;24.47
76260;BME280;65076;52.362;6.588;2023-06-10T10:09:25;101625.69;;;32.98;23.55
76260;BME280;65076;52.362;6.588;2023-06-10T10:11:55;101620.66;;;34.33;22.65
76260;BME280;65076;52.362;6.588;2023-06-10T10:14:26;101619.00;;;33.76;23.82
76260;BME280;65076;52.362;6.588;2023-06-10T10:17:00;101622.69;;;34.11;22.56
76260;BME280;65076;52.362;6.588;2023-06-10T10:19:37;101615.72;;;34.00;23.00
76260;BME280;65076;52.362;6.588;2023-06-10T10:22:19;101619.19;;;33.68;22.56
76260;BME280;65076;52.362;6.588;2023-06-10T10:24:54;101616.91;;;35.00;21.79
76260;BME280;65076;52.362;6.588;2023-06-10T10:27:27;101607.31;;;34.14;22.12
76260;BME280;65076;52.362;6.588;2023-06-10T10:29:58;101618.53;;;34.61;21.73
76260;BME280;65076;52.362;6.588;2023-06-10T10:32:35;101610.09;;;34.61;21.77
76260;BME280;65076;52.362;6.588;2023-06-10T10:35:15;101613.00;;;34.74;21.81
76260;BME280;65076;52.362;6.588;2023-06-10T10:37:47;101609.91;;;34.09;22.65
76260;BME280;65076;52.362;6.588;2023-06-10T10:40:16;101608.97;;;34.36;22.05
76260;BME280;65076;52.362;6.588;2023-06-10T10:42:45;101615.25;;;34.38;21.81
76260;BME280;65076;52.362;6.588;2023-06-10T10:45:15;101606.88;;;34.64;21.35
76260;BME280;65076;52.362;6.588;2023-06-10T10:47:45;101606.81;;;34.44;21.74
76260;BME280;65076;52.362;6.588;2023-06-10T10:50:17;101600.50;;;33.88;22.15
76260;BME280;65076;52.362;6.588;2023-06-10T10:52:52;101598.25;;;34.12;21.96
76260;BME280;65076;52.362;6.588;2023-06-10T10:55:23;101596.75;;;34.16;22.65
76260;BME280;65076;52.362;6.588;2023-06-10T10:57:56;101596.28;;;34.06;22.39
76260;BME280;65076;52.362;6.588;2023-06-10T11:00:29;101610.63;;;34.98;20.43
76260;BME280;65076;52.362;6.588;2023-06-10T11:03:00;101589.13;;;34.57;21.60
76260;BME280;65076;52.362;6.588;2023-06-10T11:05:40;101595.34;;;33.57;22.53
76260;BME280;65076;52.362;6.588;2023-06-10T11:08:11;101590.09;;;33.82;23.63
76260;BME280;65076;52.362;6.588;2023-06-10T11:10:40;101585.50;;;33.68;21.71
76260;BME280;65076;52.362;6.588;2023-06-10T11:13:10;101583.91;;;32.82;22.15
76260;BME280;65076;52.362;6.588;2023-06-10T11:15:44;101585.47;;;34.09;21.47
76260;BME280;65076;52.362;6.588;2023-06-10T11:18:24;101586.38;;;34.97;19.92
76260;BME280;65076;52.362;6.588;2023-06-10T11:20:58;101576.22;;;34.69;21.16
76260;BME280;65076;52.362;6.588;2023-06-10T11:23:47;101580.72;;;34.70;19.90
76260;BME280;65076;52.362;6.588;2023-06-10T11:26:19;101584.00;;;35.53;18.83
76260;BME280;65076;52.362;6.588;2023-06-10T11:29:10;101576.22;;;35.42;19.22
76260;BME280;65076;52.362;6.588;2023-06-10T11:31:44;101572.63;;;33.52;21.06
76260;BME280;65076;52.362;6.588;2023-06-10T11:34:15;101568.81;;;34.08;19.90
76260;BME280;65076;52.362;6.588;2023-06-10T11:36:51;101576.69;;;35.32;18.00
76260;BME280;65076;52.362;6.588;2023-06-10T11:39:20;101577.06;;;35.68;15.63
76260;BME280;65076;52.362;6.588;2023-06-10T11:45:35;101565.78;;;35.49;19.88
76260;BME280;65076;52.362;6.588;2023-06-10T11:48:16;101567.31;;;35.51;20.17
76260;BME280;65076;52.362;6.588;2023-06-10T11:50:44;101576.88;;;35.24;18.37
76260;BME280;65076;52.362;6.588;2023-06-10T11:53:15;101565.41;;;35.19;16.46
76260;BME280;65076;52.362;6.588;2023-06-10T11:55:45;101568.59;;;34.63;17.08
76260;BME280;65076;52.362;6.588;2023-06-10T11:58:22;101564.53;;;34.99;16.30
76260;BME280;65076;52.362;6.588;2023-06-10T12:00:51;101573.63;;;35.34;15.39
76260;BME280;65076;52.362;6.588;2023-06-10T12:03:20;101575.44;;;35.99;14.28
76260;BME280;65076;52.362;6.588;2023-06-10T12:05:59;101570.84;;;36.11;13.86
76260;BME280;65076;52.362;6.588;2023-06-10T12:08:31;101565.81;;;34.83;15.09
76260;BME280;65076;52.362;6.588;2023-06-10T12:11:02;101567.06;;;35.79;14.17
76260;BME280;65076;52.362;6.588;2023-06-10T12:13:31;101566.69;;;35.36;14.46
76260;BME280;65076;52.362;6.588;2023-06-10T12:16:06;101566.06;;;34.95;13.60
76260;BME280;65076;52.362;6.588;2023-06-10T12:18:35;101561.84;;;34.51;14.55
76260;BME280;65076;52.362;6.588;2023-06-10T12:21:15;101552.56;;;34.51;15.19
76260;BME280;65076;52.362;6.588;2023-06-10T12:24:07;101558.88;;;33.64;17.51
76260;BME280;65076;52.362;6.588;2023-06-10T12:26:40;101554.56;;;35.29;15.93
76260;BME280;65076;52.362;6.588;2023-06-10T12:29:22;101555.88;;;34.87;16.54
76260;BME280;65076;52.362;6.588;2023-06-10T12:31:55;101539.84;;;35.07;16.77
76260;BME280;65076;52.362;6.588;2023-06-10T12:34:31;101547.16;;;35.54;15.95
76260;BME280;65076;52.362;6.588;2023-06-10T12:37:01;101546.91;;;34.44;16.12
76260;BME280;65076;52.362;6.588;2023-06-10T12:39:33;101551.13;;;34.88;14.91
76260;BME280;65076;52.362;6.588;2023-06-10T12:42:02;101544.88;;;35.96;13.97
76260;BME280;65076;52.362;6.588;2023-06-10T12:44:32;101535.75;;;35.30;13.94
76260;BME280;65076;52.362;6.588;2023-06-10T12:47:07;101535.22;;;35.65;12.45
76260;BME280;65076;52.362;6.588;2023-06-10T12:49:39;101537.69;;;35.16;14.24
76260;BME280;65076;52.362;6.588;2023-06-10T12:52:07;101533.38;;;34.94;15.82
76260;BME280;65076;52.362;6.588;2023-06-10T12:54:37;101536.19;;;35.20;14.66
76260;BME280;65076;52.362;6.588;2023-06-10T12:57:05;101533.78;;;35.30;15.13
76260;BME280;65076;52.362;6.588;2023-06-10T12:59:33;101526.81;;;35.52;15.76
76260;BME280;65076;52.362;6.588;2023-06-10T13:02:01;101537.69;;;35.29;16.44
76260;BME280;65076;52.362;6.588;2023-06-10T13:04:29;101530.78;;;34.99;17.21
76260;BME280;65076;52.362;6.588;2023-06-10T13:06:57;101526.19;;;35.17;17.64
76260;BME280;65076;52.362;6.588;2023-06-10T13:09:25;101520.13;;;35.34;16.97